Flight Track Log - Related Links

Times and Time Zones

All times are in EDT time to prevent confusion due to time zone crossing. See the SWA1910 flight status page for this flight to view local times or setup timezone preferences in your user account.

Time Position Orientation Groundspeed Altitude Reporting Facility
EDT Latitude Longitude Course Direction KTS MPH feet Rate Location/Type
Fri 07:55:24 PM 39.1167 -76.6333 151° Southeast 194 223 2,700  Level Potomac TRACON
Fri 07:56:24 PM 39.0667 -76.5833 142° Southeast 219 252 5,300 2,238 Climbing Potomac TRACON
Fri 07:57:30 PM 39.0167 -76.5000 128° Southeast 285 328 7,400 2,500 Climbing Potomac TRACON
Fri 07:58:24 PM 38.9500 -76.5000 180° South 282 325 10,300 2,623 Climbing Potomac TRACON
Fri 08:00:00 PM 38.7050 -76.8890 189° South  Level Estimated
Fri 08:00:01 PM 38.8447 -76.5592 204° Southwest 275 316 14,000  Level Washington Center
Fri 08:01:01 PM 38.7631 -76.6061 204° Southwest 300 345 14,700 2,400 Climbing Washington Center
Fri 08:02:01 PM 38.6878 -76.6528 206° Southwest 307 353 18,800 2,150 Climbing Washington Center
Fri 08:03:01 PM 38.6061 -76.6994 204° Southwest 313 360 19,000 1,800 Climbing Washington Center
Fri 08:04:01 PM 38.5161 -76.7219 191° South 324 373 22,400 2,700 Climbing Washington Center
Fri 08:05:01 PM 38.4183 -76.7072 173° South 335 386 24,400 2,300 Climbing Washington Center
Fri 08:06:01 PM 38.3222 -76.7164 184° South 347 399 27,000 2,300 Climbing Washington Center
Fri 08:07:01 PM 38.2242 -76.7361 189° South 352 405 29,000 1,900 Climbing Washington Center
Fri 08:08:01 PM 38.1278 -76.7664 194° South 352 405 30,800 2,000 Climbing Washington Center
Fri 08:09:01 PM 38.0336 -76.7939 193° South 352 405 33,000 1,600 Climbing Washington Center
Fri 08:10:01 PM 37.9353 -76.8267 195° South 357 411 34,000 500 Climbing Washington Center
Fri 08:11:01 PM 37.8350 -76.8592 194° South 362 417 34,000 650 Level Washington Center
Fri 08:12:01 PM 37.7303 -76.8861 192° South 368 423 35,300 1,250 Climbing Washington Center
Fri 08:13:01 PM 37.6175 -76.9081 189° South 382 440 36,500 850 Climbing Washington Center
Fri 08:14:01 PM 37.5281 -76.8958 174° South 387 445 37,000 700 Climbing Washington Center
Fri 08:15:01 PM 37.3861 -76.8908 178° South 413 475 37,900 500 Climbing Washington Center
Fri 08:16:01 PM 37.2794 -76.9256 195° South 413 475 38,000 50 Climbing Washington Center
Fri 08:17:01 PM 37.1789 -76.9553 193° South 407 468 38,000  Level Washington Center
Fri 08:18:01 PM 37.0742 -76.9922 196° South 402 463 38,000  Level Washington Center
Fri 08:19:01 PM 36.9694 -77.0269 195° South 397 457 38,000  Level Washington Center
Fri 08:20:01 PM 36.8628 -77.0614 194° South 397 457 38,000  Level Washington Center
Fri 08:21:01 PM 36.7558 -77.0956 194° South 397 457 38,000  Level Washington Center
Fri 08:22:01 PM 36.6553 -77.1297 195° South 397 457 38,000  Level Washington Center
Fri 08:23:01 PM 36.5547 -77.1642 195° South 386 444 38,000  Level Washington Center
Fri 08:24:01 PM 36.4519 -77.1981 195° South 381 438 38,000  Level Washington Center
Fri 08:25:01 PM 36.3494 -77.2294 194° South 381 438 38,000  Level Washington Center
Fri 08:26:01 PM 36.2467 -77.2636 195° South 381 438 38,000  Level Washington Center
Fri 08:27:01 PM 36.1503 -77.2950 195° South 375 432 38,000  Level Washington Center
Fri 08:28:01 PM 36.0475 -77.3236 193° South 375 432 38,000  Level Washington Center
Fri 08:30:01 PM 35.8422 -77.3881 194° South 380 437 38,000  Level Washington Center
Fri 08:31:01 PM 35.7394 -77.4217 195° South 380 437 38,000  Level Washington Center
Fri 08:32:01 PM 35.6408 -77.4528 194° South 375 432 38,000  Level Washington Center
Fri 08:33:01 PM 35.5422 -77.4836 194° South 375 432 38,000 -50 Level Washington Center
Fri 08:34:01 PM 35.4436 -77.5144 194° South 375 432 37,900  Descending Washington Center
Fri 08:35:01 PM 35.3431 -77.5425 193° South 375 432 38,000  Climbing Washington Center
Fri 08:36:01 PM 35.2467 -77.5758 196° South 375 432 37,900  Descending Washington Center
Fri 08:37:01 PM 35.1439 -77.6064 194° South 375 432 38,000 50 Climbing Washington Center
Fri 08:38:01 PM 35.0475 -77.6369 195° South 375 432 38,000  Level Washington Center
Fri 08:39:01 PM 34.9467 -77.6697 195° South 375 432 38,000  Level Washington Center
Fri 08:40:01 PM 34.8561 -77.7131 201° Southwest 370 426 38,000 -50 Level Washington Center
Fri 08:41:01 PM 34.7675 -77.7764 210° Southwest 351 404 37,900 -50 Descending Washington Center
Fri 08:42:01 PM 34.6828 -77.8322 208° Southwest 346 398 37,900  Level Washington Center
Fri 08:43:01 PM 34.6006 -77.8906 210° Southwest 346 398 37,900  Level Washington Center
Fri 08:44:01 PM 34.5181 -77.9489 210° Southwest 351 404 37,900  Level Washington Center
Fri 08:45:01 PM 34.4333 -78.0067 209° Southwest 351 404 37,900  Level Washington Center
Fri 08:46:01 PM 34.3508 -78.0672 211° Southwest 351 404 37,900  Level Washington Center
Fri 08:47:01 PM 34.2658 -78.1300 211° Southwest 351 404 37,900  Level Washington Center
Fri 08:47:40 PM 34.2192 -78.1642 211° Southwest 338 389 37,900  Level Jacksonville Center
Fri 08:48:40 PM 34.1361 -78.2264 212° Southwest 338 389 37,900  Level Jacksonville Center
Fri 08:49:40 PM 34.0528 -78.2908 213° Southwest 344 396 37,900  Level Jacksonville Center
Fri 08:50:40 PM 33.9697 -78.3578 214° Southwest 356 410 37,900  Level Jacksonville Center
Fri 08:51:40 PM 33.8844 -78.4247 213° Southwest 356 410 37,900  Level Jacksonville Center
Fri 08:52:40 PM 33.7969 -78.4842 209° Southwest 356 410 37,900  Level Jacksonville Center
Fri 08:53:40 PM 33.7028 -78.5339 204° Southwest 363 418 37,900  Level Jacksonville Center
Fri 08:54:40 PM 33.6064 -78.5811 202° Southwest 368 423 37,900  Level Jacksonville Center
Fri 08:55:40 PM 33.5075 -78.6183 197° South 378 435 37,900  Level Jacksonville Center
Fri 08:56:40 PM 33.4064 -78.6578 198° South 378 435 37,900  Level Jacksonville Center
Fri 08:57:40 PM 33.3075 -78.6950 197° South 378 435 37,900  Level Jacksonville Center
Fri 08:58:40 PM 33.2039 -78.7197 191° South 378 435 37,900  Level Jacksonville Center
Fri 08:59:40 PM 33.0983 -78.7419 190° South 378 435 37,900  Level Jacksonville Center
Fri 09:00:40 PM 32.9925 -78.7642 190° South 383 441 37,900  Level Jacksonville Center
Fri 09:01:40 PM 32.8889 -78.7839 189° South 388 447 37,900  Level Jacksonville Center
Fri 09:02:40 PM 32.7853 -78.8058 190° South 388 447 37,900  Level Jacksonville Center
Fri 09:03:40 PM 32.6794 -78.8303 191° South 388 447 37,900  Level Jacksonville Center
Fri 09:04:40 PM 32.5717 -78.8525 190° South 388 447 37,900  Level Jacksonville Center
Fri 09:05:40 PM 32.4619 -78.8769 191° South 393 452 37,900  Level Jacksonville Center
Fri 09:06:40 PM 32.3561 -78.9014 191° South 393 452 37,900  Level Jacksonville Center
Fri 09:07:40 PM 32.2483 -78.9231 190° South 393 452 37,900  Level Jacksonville Center
Fri 09:08:40 PM 32.1425 -78.9450 190° South 393 452 37,900  Level Jacksonville Center
Fri 09:09:40 PM 32.0347 -78.9692 191° South 393 452 37,900  Level Jacksonville Center
Fri 09:10:40 PM 31.9250 -78.9933 191° South 393 452 37,900  Level Jacksonville Center
Fri 09:11:40 PM 31.8192 -79.0125 189° South 393 452 37,900  Level Jacksonville Center
Fri 09:12:40 PM 31.7111 -79.0367 191° South 393 452 37,900  Level Jacksonville Center
Fri 09:13:40 PM 31.5992 -79.0608 190° South 398 458 37,900  Level Jacksonville Center
Fri 09:14:40 PM 31.4914 -79.0822 190° South 398 458 37,900  Level Jacksonville Center
Fri 09:15:40 PM 31.3814 -79.1061 191° South 398 458 37,900  Level Jacksonville Center
Fri 09:16:40 PM 31.2736 -79.1275 190° South 398 458 37,900  Level Jacksonville Center
Fri 09:17:40 PM 31.1633 -79.1467 188° South 403 464 37,900  Level Jacksonville Center
Fri 09:18:40 PM 31.0514 -79.1753 192° South 411 473 37,900  Level Jacksonville Center
Fri 09:19:40 PM 30.9247 -79.1972 188° South 419 482 37,900  Level Jacksonville Center
Fri 09:21:19 PM 30.7544 -79.2344 191° South 397 457 37,900  Level Miami Center
Fri 09:22:19 PM 30.6353 -79.2558 189° South 397 457 37,900  Level Miami Center
Fri 09:23:19 PM 30.5267 -79.2800 191° South 397 457 37,900  Level Miami Center
Fri 09:24:19 PM 30.4175 -79.3206 198° South 403 464 37,900  Level Miami Center
Fri 09:25:19 PM 30.3206 -79.3736 205° Southwest 397 457 37,900  Level Miami Center
Fri 09:26:19 PM 30.2258 -79.4267 206° Southwest 392 451 37,900  Level Miami Center
Fri 09:27:19 PM 30.1228 -79.4769 203° Southwest 392 451 37,900  Level Miami Center
Fri 09:28:19 PM 30.0197 -79.5294 204° Southwest 400 460 37,900  Level Miami Center
Fri 09:29:19 PM 29.9186 -79.5822 204° Southwest 400 460 37,900  Level Miami Center
Fri 09:30:19 PM 29.8217 -79.6322 204° Southwest 405 466 37,900 50 Level Miami Center
Fri 09:31:19 PM 29.7289 -79.6847 206° Southwest 400 460 38,000 50 Climbing Miami Center
Fri 09:32:19 PM 29.6281 -79.7322 202° Southwest 406 467 38,000  Level Miami Center
Fri 09:33:19 PM 29.5267 -79.7869 205° Southwest 401 461 38,000  Level Miami Center
Fri 09:34:19 PM 29.4256 -79.8389 204° Southwest 401 461 38,000  Level Miami Center
Fri 09:35:19 PM 29.3244 -79.8908 204° Southwest 401 461 38,000  Level Miami Center
Fri 09:36:19 PM 29.2231 -79.9428 204° Southwest 401 461 38,000 -200 Level Miami Center
Fri 09:37:19 PM 29.1200 -79.9922 203° Southwest 401 461 37,600 -1,500 Descending Miami Center
Fri 09:38:19 PM 29.0206 -80.0439 204° Southwest 401 461 35,000 -2,350 Descending Miami Center
Fri 09:39:19 PM 28.9153 -80.0953 203° Southwest 401 461 32,900 -2,100 Descending Miami Center
Fri 09:40:19 PM 28.8139 -80.1469 204° Southwest 401 461 30,800 -2,100 Descending Miami Center
Fri 09:41:19 PM 28.7106 -80.1983 204° Southwest 401 461 28,700 -2,300 Descending Miami Center
Fri 09:42:19 PM 28.6028 -80.2517 203° Southwest 395 455 26,200 -2,250 Descending Miami Center
Fri 09:43:19 PM 28.5056 -80.3031 205° Southwest 390 449 24,200 -1,500 Descending Miami Center
Fri 09:44:19 PM 28.4617 -80.3939 241° Southwest 371 427 23,200 -1,000 Descending Miami Center
Fri 09:45:19 PM 28.4194 -80.4942 244° Southwest 363 418 22,200 -1,050 Descending Miami Center
Fri 09:46:19 PM 28.3442 -80.5836 226° Southwest 368 423 21,100 -1,050 Descending Miami Center
Fri 09:47:19 PM 28.2614 -80.6375 210° Southwest 356 410 20,100 -1,000 Descending Miami Center
Fri 09:48:19 PM 28.1786 -80.6911 210° Southwest 351 404 19,100 -1,000 Descending Miami Center
Fri 09:49:19 PM 28.0997 -80.7472 212° Southwest 345 397 18,100 -950 Descending Miami Center
Fri 09:50:19 PM 28.0275 -80.7967 211° Southwest 340 391 17,200 -850 Descending Miami Center
Fri 09:51:19 PM 27.9511 -80.8481 211° Southwest 340 391 16,400 -500 Descending Miami Center
Fri 09:52:19 PM 27.8722 -80.9017 211° Southwest 340 391 16,200 -200 Descending Miami Center
Fri 09:53:19 PM 27.7872 -80.9594 211° Southwest 335 386 16,000 -100 Descending Miami Center
Fri 09:54:19 PM 27.7083 -81.0106 210° Southwest 335 386 16,000  Level Miami Center
Fri 09:55:22 PM 27.6339 -81.0642 213° Southwest 325 374 16,000  Level Miami Center
Fri 09:56:20 PM 27.5614 -81.1131 211° Southwest 325 374 16,000  Level Miami Center
Fri 09:57:21 PM 27.4783 -81.1686 211° Southwest 325 374 16,000  Level Miami Center
Fri 09:58:21 PM 27.3994 -81.2217 211° Southwest 325 374 16,000  Level Miami Center
Fri 09:59:22 PM 27.3228 -81.2725 211° Southwest 325 374 16,000 -496 Level Miami Center
Fri 10:00:22 PM 27.2547 -81.3189 211° Southwest 325 374 15,000 -1,322 Descending Miami Center
Fri 10:01:20 PM 27.1800 -81.3675 210° Southwest 325 374 13,400 -1,576 Descending Miami Center
Fri 10:02:20 PM 27.1053 -81.4206 212° Southwest 325 374 11,900 -1,587 Descending Miami Center
Fri 10:03:21 PM 27.0328 -81.4689 211° Southwest 325 374 10,200 -942 Descending Miami Center
Fri 10:04:21 PM 26.9633 -81.4919 196° South 288 331 10,000 -102 Descending Miami Center
Fri 10:05:19 PM 26.8894 -81.5122 194° South 277 319 10,000  Level Miami Center
Fri 10:06:21 PM 26.8097 -81.5300 191° South 277 319 10,000 -836 Level Miami Center
Fri 10:07:21 PM 26.7400 -81.5481 193° South 265 305 8,300 -1,881 Descending Miami Center
Fri 10:08:19 PM 26.6867 -81.5878 214° Southwest 248 285 6,300 -2,069 Descending Miami Center
Fri 10:10:00 PM 26.5599 -81.7288 225° Southwest  Level Estimated
Fri 10:17:00 PM 26.5362 -81.7552 225° Southwest  Level Estimated
Fri 10:18:00 PM 26.5362 -81.7552 138° Southeast  Level Estimated
Fri 10:19:00 PM 26.5362 -81.7552 138° Southeast  Level Estimated
Fri 10:20:00 PM 26.5362 -81.7552 138° Southeast  Level Estimated
Fri 10:21:00 PM 26.5362 -81.7552 138° Southeast  Level Estimated
Fri 10:22:00 PM 26.5362 -81.7552 138° Southeast  Level Estimated

Login

Don't have an account? Register now (free) for customized features, flight alerts, and more!